sensor_id;sensor_type;location;lat;lon;timestamp;pressure;altitude;pressure_sealevel;temperature;humidity
68871;BME280;55906;52.278;6.808;2022-08-21T00:00:15;101536.28;;;19.09;61.93
68871;BME280;55906;52.278;6.808;2022-08-21T00:02:45;101530.94;;;19.07;61.93
68871;BME280;55906;52.278;6.808;2022-08-21T00:05:12;101530.03;;;19.02;61.94
68871;BME280;55906;52.278;6.808;2022-08-21T00:07:39;101530.03;;;18.98;62.24
68871;BME280;55906;52.278;6.808;2022-08-21T00:10:06;101520.25;;;18.95;62.21
68871;BME280;55906;52.278;6.808;2022-08-21T00:12:33;101523.81;;;18.94;61.88
68871;BME280;55906;52.278;6.808;2022-08-21T00:15:03;101522.91;;;18.88;63.04
68871;BME280;55906;52.278;6.808;2022-08-21T00:17:30;101522.88;;;18.80;62.98
68871;BME280;55906;52.278;6.808;2022-08-21T00:19:56;101522.88;;;18.77;63.11
68871;BME280;55906;52.278;6.808;2022-08-21T00:22:23;101518.41;;;18.73;63.28
68871;BME280;55906;52.278;6.808;2022-08-21T00:24:49;101522.84;;;18.69;63.36
68871;BME280;55906;52.278;6.808;2022-08-21T00:27:16;101524.63;;;18.64;63.66
68871;BME280;55906;52.278;6.808;2022-08-21T00:29:44;101521.03;;;18.61;63.52
68871;BME280;55906;52.278;6.808;2022-08-21T00:32:12;101527.22;;;18.58;63.84
68871;BME280;55906;52.278;6.808;2022-08-21T00:34:45;101521.88;;;18.52;64.13
68871;BME280;55906;52.278;6.808;2022-08-21T00:37:12;101521.00;;;18.51;64.04
68871;BME280;55906;52.278;6.808;2022-08-21T00:39:40;101528.09;;;18.52;63.90
68871;BME280;55906;52.278;6.808;2022-08-21T00:42:08;101528.97;;;18.50;63.79
68871;BME280;55906;52.278;6.808;2022-08-21T00:44:35;101521.88;;;18.49;63.52
68871;BME280;55906;52.278;6.808;2022-08-21T00:47:02;101526.31;;;18.51;63.59
68871;BME280;55906;52.278;6.808;2022-08-21T00:49:30;101524.53;;;18.47;63.77
68871;BME280;55906;52.278;6.808;2022-08-21T00:51:59;101527.19;;;18.44;63.79
68871;BME280;55906;52.278;6.808;2022-08-21T00:54:29;101523.59;;;18.41;63.89
68871;BME280;55906;52.278;6.808;2022-08-21T00:57:00;101531.59;;;18.39;64.62
68871;BME280;55906;52.278;6.808;2022-08-21T00:59:29;101532.47;;;18.37;63.95
68871;BME280;55906;52.278;6.808;2022-08-21T01:01:58;101530.69;;;18.34;64.10
68871;BME280;55906;52.278;6.808;2022-08-21T01:04:26;101532.44;;;18.32;64.06
68871;BME280;55906;52.278;6.808;2022-08-21T01:06:54;101531.53;;;18.27;64.25
68871;BME280;55906;52.278;6.808;2022-08-21T01:09:21;101526.19;;;18.24;64.38
68871;BME280;55906;52.278;6.808;2022-08-21T01:11:47;101533.25;;;18.19;64.47
68871;BME280;55906;52.278;6.808;2022-08-21T01:14:15;101527.00;;;18.17;64.63
68871;BME280;55906;52.278;6.808;2022-08-21T01:16:48;101527.00;;;18.15;64.91
68871;BME280;55906;52.278;6.808;2022-08-21T01:19:16;101529.66;;;18.14;64.92
68871;BME280;55906;52.278;6.808;2022-08-21T01:21:44;101529.63;;;18.11;65.11
68871;BME280;55906;52.278;6.808;2022-08-21T01:24:12;101526.06;;;18.07;65.08
68871;BME280;55906;52.278;6.808;2022-08-21T01:26:39;101525.19;;;18.05;65.16
68871;BME280;55906;52.278;6.808;2022-08-21T01:29:12;101534.91;;;18.02;65.81
68871;BME280;55906;52.278;6.808;2022-08-21T01:31:41;101534.88;;;17.97;65.22
68871;BME280;55906;52.278;6.808;2022-08-21T01:34:08;101534.84;;;17.91;65.39
68871;BME280;55906;52.278;6.808;2022-08-21T01:36:35;101526.84;;;17.88;65.52
68871;BME280;55906;52.278;6.808;2022-08-21T01:39:04;101528.59;;;17.83;65.75
68871;BME280;55906;52.278;6.808;2022-08-21T01:41:31;101535.66;;;17.81;65.64
68871;BME280;55906;52.278;6.808;2022-08-21T01:43:58;101526.78;;;17.79;65.40
68871;BME280;55906;52.278;6.808;2022-08-21T01:46:24;101527.66;;;17.76;65.79
68871;BME280;55906;52.278;6.808;2022-08-21T01:48:51;101535.59;;;17.70;66.17
68871;BME280;55906;52.278;6.808;2022-08-21T01:51:18;101524.00;;;17.65;66.22
68871;BME280;55906;52.278;6.808;2022-08-21T01:53:44;101525.81;;;17.66;66.02
68871;BME280;55906;52.278;6.808;2022-08-21T01:59:29;101523.03;;;17.57;66.23
68871;BME280;55906;52.278;6.808;2022-08-21T02:01:56;101534.56;;;17.56;66.45
68871;BME280;55906;52.278;6.808;2022-08-21T02:04:23;101522.16;;;17.56;66.09
68871;BME280;55906;52.278;6.808;2022-08-21T02:06:50;101523.91;;;17.56;66.43
68871;BME280;55906;52.278;6.808;2022-08-21T02:09:17;101522.13;;;17.52;66.48
68871;BME280;55906;52.278;6.808;2022-08-21T02:11:44;101522.09;;;17.49;66.42
68871;BME280;55906;52.278;6.808;2022-08-21T02:14:12;101524.75;;;17.47;66.64
68871;BME280;55906;52.278;6.808;2022-08-21T02:16:42;101522.06;;;17.46;66.76
68871;BME280;55906;52.278;6.808;2022-08-21T02:19:10;101514.03;;;17.40;66.80
68871;BME280;55906;52.278;6.808;2022-08-21T02:21:37;101520.22;;;17.39;66.71
68871;BME280;55906;52.278;6.808;2022-08-21T02:24:04;101517.53;;;17.36;66.63
68871;BME280;55906;52.278;6.808;2022-08-21T02:26:31;101521.06;;;17.32;66.74
68871;BME280;55906;52.278;6.808;2022-08-21T02:28:58;101515.75;;;17.32;66.70
68871;BME280;55906;52.278;6.808;2022-08-21T02:31:25;101521.03;;;17.27;66.91
68871;BME280;55906;52.278;6.808;2022-08-21T02:33:53;101509.50;;;17.26;67.04
68871;BME280;55906;52.278;6.808;2022-08-21T02:36:19;101513.88;;;17.23;67.16
68871;BME280;55906;52.278;6.808;2022-08-21T02:38:48;101507.66;;;17.21;67.08
68871;BME280;55906;52.278;6.808;2022-08-21T02:41:17;101515.63;;;17.19;67.03
68871;BME280;55906;52.278;6.808;2022-08-21T02:43:44;101510.31;;;17.18;67.35
68871;BME280;55906;52.278;6.808;2022-08-21T02:46:13;101508.50;;;17.17;67.43
68871;BME280;55906;52.278;6.808;2022-08-21T02:48:41;101508.47;;;17.12;67.38
68871;BME280;55906;52.278;6.808;2022-08-21T02:51:12;101504.94;;;17.13;67.43
68871;BME280;55906;52.278;6.808;2022-08-21T02:53:39;101504.03;;;17.10;67.15
68871;BME280;55906;52.278;6.808;2022-08-21T02:56:08;101503.13;;;17.08;67.29
68871;BME280;55906;52.278;6.808;2022-08-21T02:58:43;101505.75;;;17.06;67.09
68871;BME280;55906;52.278;6.808;2022-08-21T03:01:10;101498.63;;;17.02;67.28
68871;BME280;55906;52.278;6.808;2022-08-21T03:03:37;101491.50;;;16.98;67.43
68871;BME280;55906;52.278;6.808;2022-08-21T03:06:05;101495.94;;;16.98;67.56
68871;BME280;55906;52.278;6.808;2022-08-21T03:08:34;101487.94;;;16.96;67.45
68871;BME280;55906;52.278;6.808;2022-08-21T03:11:01;101493.22;;;16.93;67.55
68871;BME280;55906;52.278;6.808;2022-08-21T03:13:28;101488.78;;;16.90;67.57
68871;BME280;55906;52.278;6.808;2022-08-21T03:15:55;101491.34;;;16.86;67.44
68871;BME280;55906;52.278;6.808;2022-08-21T03:18:22;101501.94;;;16.83;67.73
68871;BME280;55906;52.278;6.808;2022-08-21T03:20:50;101504.56;;;16.78;67.77
68871;BME280;55906;52.278;6.808;2022-08-21T03:23:17;101490.31;;;16.72;68.09
68871;BME280;55906;52.278;6.808;2022-08-21T03:25:46;101498.28;;;16.72;67.88
68871;BME280;55906;52.278;6.808;2022-08-21T03:28:15;101494.72;;;16.70;67.94
68871;BME280;55906;52.278;6.808;2022-08-21T03:30:43;101497.38;;;16.70;67.94
68871;BME280;55906;52.278;6.808;2022-08-21T03:33:10;101493.84;;;16.71;67.72
68871;BME280;55906;52.278;6.808;2022-08-21T03:35:37;101500.94;;;16.70;67.77
68871;BME280;55906;52.278;6.808;2022-08-21T03:38:05;101497.41;;;16.71;67.79
68871;BME280;55906;52.278;6.808;2022-08-21T03:40:32;101503.56;;;16.69;67.82
68871;BME280;55906;52.278;6.808;2022-08-21T03:43:00;101499.13;;;16.68;67.94
68871;BME280;55906;52.278;6.808;2022-08-21T03:45:28;101500.00;;;16.67;67.77
68871;BME280;55906;52.278;6.808;2022-08-21T03:47:57;101497.31;;;16.65;68.26
68871;BME280;55906;52.278;6.808;2022-08-21T03:50:28;101500.81;;;16.64;68.19
68871;BME280;55906;52.278;6.808;2022-08-21T03:52:55;101498.16;;;16.62;67.90
68871;BME280;55906;52.278;6.808;2022-08-21T03:55:22;101498.13;;;16.59;68.27
68871;BME280;55906;52.278;6.808;2022-08-21T03:57:49;101497.22;;;16.59;68.18
68871;BME280;55906;52.278;6.808;2022-08-21T04:00:19;101500.78;;;16.59;68.38
68871;BME280;55906;52.278;6.808;2022-08-21T04:02:46;101503.44;;;16.59;67.89
68871;BME280;55906;52.278;6.808;2022-08-21T04:05:14;101502.53;;;16.57;68.09
68871;BME280;55906;52.278;6.808;2022-08-21T04:07:52;101506.00;;;16.53;68.17
68871;BME280;55906;52.278;6.808;2022-08-21T04:10:19;101502.41;;;16.48;68.49
68871;BME280;55906;52.278;6.808;2022-08-21T04:12:46;101511.28;;;16.49;68.52
68871;BME280;55906;52.278;6.808;2022-08-21T04:15:12;101506.81;;;16.46;68.37
68871;BME280;55906;52.278;6.808;2022-08-21T04:17:41;101498.81;;;16.43;68.55
68871;BME280;55906;52.278;6.808;2022-08-21T04:20:08;101509.41;;;16.42;68.29
68871;BME280;55906;52.278;6.808;2022-08-21T04:22:35;101506.72;;;16.37;68.61
68871;BME280;55906;52.278;6.808;2022-08-21T04:25:02;101507.59;;;16.36;68.73
68871;BME280;55906;52.278;6.808;2022-08-21T04:27:28;101502.25;;;16.35;69.00
68871;BME280;55906;52.278;6.808;2022-08-21T04:29:55;101501.34;;;16.34;69.00
68871;BME280;55906;52.278;6.808;2022-08-21T04:32:22;101506.63;;;16.31;69.27
68871;BME280;55906;52.278;6.808;2022-08-21T04:34:50;101511.03;;;16.29;69.16
68871;BME280;55906;52.278;6.808;2022-08-21T04:37:17;101509.22;;;16.26;69.28
68871;BME280;55906;52.278;6.808;2022-08-21T04:39:43;101510.13;;;16.27;68.91
68871;BME280;55906;52.278;6.808;2022-08-21T04:42:10;101513.66;;;16.26;69.15
68871;BME280;55906;52.278;6.808;2022-08-21T04:44:36;101508.31;;;16.23;69.13
68871;BME280;55906;52.278;6.808;2022-08-21T04:47:03;101508.34;;;16.26;69.15
68871;BME280;55906;52.278;6.808;2022-08-21T04:49:31;101510.09;;;16.24;69.26
68871;BME280;55906;52.278;6.808;2022-08-21T04:51:59;101514.56;;;16.28;68.98
68871;BME280;55906;52.278;6.808;2022-08-21T04:54:26;101510.09;;;16.25;69.11
68871;BME280;55906;52.278;6.808;2022-08-21T04:56:55;101510.13;;;16.27;69.41
68871;BME280;55906;52.278;6.808;2022-08-21T04:59:29;101515.47;;;16.30;69.28
68871;BME280;55906;52.278;6.808;2022-08-21T05:01:57;101514.56;;;16.28;69.47
68871;BME280;55906;52.278;6.808;2022-08-21T05:04:27;101517.22;;;16.29;69.63
68871;BME280;55906;52.278;6.808;2022-08-21T05:06:56;101519.03;;;16.32;69.46
68871;BME280;55906;52.278;6.808;2022-08-21T05:09:27;101520.00;;;16.37;68.98
68871;BME280;55906;52.278;6.808;2022-08-21T05:11:55;101520.00;;;16.37;69.51
68871;BME280;55906;52.278;6.808;2022-08-21T05:14:23;101523.56;;;16.41;69.23
68871;BME280;55906;52.278;6.808;2022-08-21T05:16:50;101522.72;;;16.43;69.26
68871;BME280;55906;52.278;6.808;2022-08-21T05:19:16;101518.34;;;16.47;69.16
68871;BME280;55906;52.278;6.808;2022-08-21T05:21:45;101521.03;;;16.51;69.09
68871;BME280;55906;52.278;6.808;2022-08-21T05:24:13;101516.66;;;16.55;68.71
68871;BME280;55906;52.278;6.808;2022-08-21T05:26:41;101513.19;;;16.62;68.83
68871;BME280;55906;52.278;6.808;2022-08-21T05:29:08;101514.16;;;16.66;68.56
68871;BME280;55906;52.278;6.808;2022-08-21T05:31:36;101512.44;;;16.69;68.43
68871;BME280;55906;52.278;6.808;2022-08-21T05:34:03;101512.50;;;16.75;68.48
68871;BME280;55906;52.278;6.808;2022-08-21T05:36:29;101514.31;;;16.79;68.20
68871;BME280;55906;52.278;6.808;2022-08-21T05:38:56;101516.16;;;16.85;68.07
68871;BME280;55906;52.278;6.808;2022-08-21T05:41:23;101510.94;;;16.91;67.85
68871;BME280;55906;52.278;6.808;2022-08-21T05:43:50;101509.22;;;16.99;67.48
68871;BME280;55906;52.278;6.808;2022-08-21T05:46:17;101516.38;;;17.05;67.65
68871;BME280;55906;52.278;6.808;2022-08-21T05:48:44;101505.84;;;17.15;67.78
68871;BME280;55906;52.278;6.808;2022-08-21T05:51:15;101509.47;;;17.23;67.19
68871;BME280;55906;52.278;6.808;2022-08-21T05:53:44;101513.09;;;17.32;66.43
68871;BME280;55906;52.278;6.808;2022-08-21T05:56:11;101510.50;;;17.41;66.24
68871;BME280;55906;52.278;6.808;2022-08-21T05:58:39;101513.16;;;17.42;66.41
68871;BME280;55906;52.278;6.808;2022-08-21T06:01:07;101510.59;;;17.53;66.09
68871;BME280;55906;52.278;6.808;2022-08-21T06:03:36;101512.38;;;17.55;66.07
68871;BME280;55906;52.278;6.808;2022-08-21T06:06:04;101509.84;;;17.66;65.80
68871;BME280;55906;52.278;6.808;2022-08-21T06:08:31;101508.06;;;17.68;65.63
68871;BME280;55906;52.278;6.808;2022-08-21T06:10:59;101509.94;;;17.81;65.23
68871;BME280;55906;52.278;6.808;2022-08-21T06:13:26;101509.97;;;17.86;65.36
68871;BME280;55906;52.278;6.808;2022-08-21T06:16:02;101510.88;;;17.91;65.27
68871;BME280;55906;52.278;6.808;2022-08-21T06:18:30;101510.03;;;17.95;64.66
68871;BME280;55906;52.278;6.808;2022-08-21T06:20:57;101508.31;;;18.08;63.98
68871;BME280;55906;52.278;6.808;2022-08-21T06:23:24;101512.78;;;18.10;63.45
68871;BME280;55906;52.278;6.808;2022-08-21T06:25:50;101511.94;;;18.19;63.26
68871;BME280;55906;52.278;6.808;2022-08-21T06:28:17;101516.41;;;18.21;63.44
68871;BME280;55906;52.278;6.808;2022-08-21T06:30:43;101513.75;;;18.23;63.31
68871;BME280;55906;52.278;6.808;2022-08-21T06:33:10;101514.66;;;18.28;63.11
68871;BME280;55906;52.278;6.808;2022-08-21T06:35:38;101507.59;;;18.38;62.82
68871;BME280;55906;52.278;6.808;2022-08-21T06:38:05;101507.63;;;18.41;63.28
68871;BME280;55906;52.278;6.808;2022-08-21T06:40:32;101511.19;;;18.47;63.19
68871;BME280;55906;52.278;6.808;2022-08-21T06:43:05;101518.34;;;18.59;63.18
68871;BME280;55906;52.278;6.808;2022-08-21T06:45:32;101512.19;;;18.71;62.59
68871;BME280;55906;52.278;6.808;2022-08-21T06:47:59;101507.75;;;18.76;62.56
68871;BME280;55906;52.278;6.808;2022-08-21T06:50:25;101513.13;;;18.86;62.27
68871;BME280;55906;52.278;6.808;2022-08-21T06:52:59;101512.25;;;18.89;61.98
68871;BME280;55906;52.278;6.808;2022-08-21T06:55:26;101505.16;;;18.97;61.73
68871;BME280;55906;52.278;6.808;2022-08-21T06:57:53;101518.50;;;19.09;61.52
68871;BME280;55906;52.278;6.808;2022-08-21T07:00:20;101515.84;;;19.23;61.16
68871;BME280;55906;52.278;6.808;2022-08-21T07:02:47;101514.06;;;19.30;60.76
68871;BME280;55906;52.278;6.808;2022-08-21T07:05:13;101510.50;;;19.37;60.31
68871;BME280;55906;52.278;6.808;2022-08-21T07:07:40;101506.06;;;19.37;60.00
68871;BME280;55906;52.278;6.808;2022-08-21T07:10:08;101509.69;;;19.53;59.31
68871;BME280;55906;52.278;6.808;2022-08-21T07:12:35;101503.44;;;19.66;58.77
68871;BME280;55906;52.278;6.808;2022-08-21T07:15:03;101498.97;;;19.73;59.09
68871;BME280;55906;52.278;6.808;2022-08-21T07:17:30;101488.25;;;19.90;58.72
68871;BME280;55906;52.278;6.808;2022-08-21T07:19:56;101498.00;;;20.04;58.33
68871;BME280;55906;52.278;6.808;2022-08-21T07:22:23;101496.22;;;20.09;57.82
68871;BME280;55906;52.278;6.808;2022-08-21T07:24:52;101500.63;;;20.23;57.18
68871;BME280;55906;52.278;6.808;2022-08-21T07:27:21;101495.22;;;20.35;56.82
68871;BME280;55906;52.278;6.808;2022-08-21T07:29:47;101495.22;;;20.42;56.54
68871;BME280;55906;52.278;6.808;2022-08-21T07:32:14;101489.81;;;20.55;56.73
68871;BME280;55906;52.278;6.808;2022-08-21T07:34:41;101482.59;;;20.70;55.89
68871;BME280;55906;52.278;6.808;2022-08-21T07:37:07;101488.78;;;20.78;55.82
68871;BME280;55906;52.278;6.808;2022-08-21T07:39:34;101487.00;;;20.85;54.99
68871;BME280;55906;52.278;6.808;2022-08-21T07:42:01;101476.22;;;20.96;54.61
68871;BME280;55906;52.278;6.808;2022-08-21T07:44:29;101480.56;;;21.11;54.49
68871;BME280;55906;52.278;6.808;2022-08-21T07:46:56;101476.03;;;21.26;53.82
68871;BME280;55906;52.278;6.808;2022-08-21T07:49:23;101474.16;;;21.36;53.32
68871;BME280;55906;52.278;6.808;2022-08-21T07:51:50;101472.38;;;21.35;51.42
68871;BME280;55906;52.278;6.808;2022-08-21T07:54:17;101474.06;;;21.45;51.53
68871;BME280;55906;52.278;6.808;2022-08-21T07:56:43;101472.22;;;21.53;50.82
68871;BME280;55906;52.278;6.808;2022-08-21T07:59:10;101465.00;;;21.61;50.99
68871;BME280;55906;52.278;6.808;2022-08-21T08:01:39;101470.28;;;21.67;51.18
68871;BME280;55906;52.278;6.808;2022-08-21T08:04:05;101464.94;;;21.67;51.10
68871;BME280;55906;52.278;6.808;2022-08-21T08:06:32;101456.88;;;21.69;51.31
68871;BME280;55906;52.278;6.808;2022-08-21T08:08:59;101462.16;;;21.77;50.78
68871;BME280;55906;52.278;6.808;2022-08-21T08:11:28;101460.25;;;21.88;50.22
68871;BME280;55906;52.278;6.808;2022-08-21T08:13:54;101466.38;;;21.99;50.11
68871;BME280;55906;52.278;6.808;2022-08-21T08:16:22;101461.00;;;21.99;49.92
68871;BME280;55906;52.278;6.808;2022-08-21T08:18:50;101459.16;;;22.06;50.22
68871;BME280;55906;52.278;6.808;2022-08-21T08:21:17;101459.19;;;22.04;50.01
68871;BME280;55906;52.278;6.808;2022-08-21T08:23:46;101461.78;;;22.15;49.85
68871;BME280;55906;52.278;6.808;2022-08-21T08:26:13;101467.00;;;22.25;49.75
68871;BME280;55906;52.278;6.808;2022-08-21T08:28:41;101464.31;;;22.25;49.49
68871;BME280;55906;52.278;6.808;2022-08-21T08:31:08;101473.13;;;22.37;48.91
68871;BME280;55906;52.278;6.808;2022-08-21T08:33:35;101467.53;;;22.52;48.77
68871;BME280;55906;52.278;6.808;2022-08-21T08:36:03;101464.66;;;22.65;48.22
68871;BME280;55906;52.278;6.808;2022-08-21T08:38:29;101463.59;;;22.80;47.78
68871;BME280;55906;52.278;6.808;2022-08-21T08:41:10;101469.44;;;23.07;47.54
68871;BME280;55906;52.278;6.808;2022-08-21T08:43:39;101468.00;;;23.41;46.96
68871;BME280;55906;52.278;6.808;2022-08-21T08:46:12;101465.88;;;23.61;46.25
68871;BME280;55906;52.278;6.808;2022-08-21T08:48:54;101463.69;;;23.82;45.30
68871;BME280;55906;52.278;6.808;2022-08-21T08:51:33;101465.78;;;24.11;45.28
68871;BME280;55906;52.278;6.808;2022-08-21T08:54:06;101471.22;;;24.52;44.61
68871;BME280;55906;52.278;6.808;2022-08-21T08:56:35;101457.00;;;24.86;43.84
68871;BME280;55906;52.278;6.808;2022-08-21T08:59:07;101458.59;;;25.32;43.92
68871;BME280;55906;52.278;6.808;2022-08-21T09:01:34;101462.59;;;25.51;42.73
68871;BME280;55906;52.278;6.808;2022-08-21T09:04:04;101447.16;;;26.23;42.53
68871;BME280;55906;52.278;6.808;2022-08-21T09:06:45;101451.00;;;26.45;39.99
68871;BME280;55906;52.278;6.808;2022-08-21T09:09:24;101453.22;;;25.98;39.67
68871;BME280;55906;52.278;6.808;2022-08-21T09:11:59;101445.88;;;26.36;39.01
68871;BME280;55906;52.278;6.808;2022-08-21T09:14:41;101441.25;;;26.69;39.00
68871;BME280;55906;52.278;6.808;2022-08-21T09:17:19;101455.69;;;26.68;38.78
68871;BME280;55906;52.278;6.808;2022-08-21T09:20:01;101457.44;;;26.97;38.84
68871;BME280;55906;52.278;6.808;2022-08-21T09:22:36;101454.72;;;26.98;37.83
68871;BME280;55906;52.278;6.808;2022-08-21T09:25:12;101451.22;;;26.95;38.18
68871;BME280;55906;52.278;6.808;2022-08-21T09:27:41;101456.56;;;26.68;38.91
68871;BME280;55906;52.278;6.808;2022-08-21T09:30:08;101444.97;;;26.93;38.27
68871;BME280;55906;52.278;6.808;2022-08-21T09:32:36;101455.66;;;27.52;36.98
68871;BME280;55906;52.278;6.808;2022-08-21T09:35:06;101447.31;;;27.58;36.41
68871;BME280;55906;52.278;6.808;2022-08-21T09:37:45;101453.16;;;27.72;35.23
68871;BME280;55906;52.278;6.808;2022-08-21T09:40:31;101448.16;;;27.60;35.62
68871;BME280;55906;52.278;6.808;2022-08-21T09:43:00;101447.50;;;27.78;36.20
68871;BME280;55906;52.278;6.808;2022-08-21T09:45:28;101453.78;;;28.03;35.02
68871;BME280;55906;52.278;6.808;2022-08-21T09:47:55;101444.78;;;28.03;34.95
68871;BME280;55906;52.278;6.808;2022-08-21T09:50:24;101437.44;;;28.07;35.21
68871;BME280;55906;52.278;6.808;2022-08-21T09:52:56;101446.59;;;28.27;34.37
68871;BME280;55906;52.278;6.808;2022-08-21T09:55:31;101438.88;;;28.40;33.51
68871;BME280;55906;52.278;6.808;2022-08-21T09:58:17;101436.19;;;28.63;33.84
68871;BME280;55906;52.278;6.808;2022-08-21T10:00:45;101434.72;;;29.00;33.48
68871;BME280;55906;52.278;6.808;2022-08-21T10:03:17;101435.44;;;29.25;33.09
68871;BME280;55906;52.278;6.808;2022-08-21T10:05:54;101434.84;;;29.39;32.18
68871;BME280;55906;52.278;6.808;2022-08-21T10:08:25;101421.50;;;29.75;32.56
68871;BME280;55906;52.278;6.808;2022-08-21T10:10:55;101432.31;;;29.56;32.69
68871;BME280;55906;52.278;6.808;2022-08-21T10:13:31;101439.31;;;30.03;31.94
68871;BME280;55906;52.278;6.808;2022-08-21T10:16:14;101439.00;;;30.67;31.01
68871;BME280;55906;52.278;6.808;2022-08-21T10:18:44;101434.84;;;30.60;31.46
68871;BME280;55906;52.278;6.808;2022-08-21T10:21:21;101433.94;;;30.78;30.27
68871;BME280;55906;52.278;6.808;2022-08-21T10:23:59;101432.22;;;30.56;30.35
68871;BME280;55906;52.278;6.808;2022-08-21T10:26:46;101436.72;;;30.76;30.26
68871;BME280;55906;52.278;6.808;2022-08-21T10:29:25;101438.59;;;30.93;30.11
68871;BME280;55906;52.278;6.808;2022-08-21T10:32:02;101424.31;;;31.43;29.68
68871;BME280;55906;52.278;6.808;2022-08-21T10:34:38;101415.03;;;31.64;28.66
68871;BME280;55906;52.278;6.808;2022-08-21T10:37:19;101415.34;;;32.41;27.53
68871;BME280;55906;52.278;6.808;2022-08-21T10:39:58;101410.84;;;32.89;27.27
68871;BME280;55906;52.278;6.808;2022-08-21T10:42:35;101413.56;;;33.35;27.04
68871;BME280;55906;52.278;6.808;2022-08-21T10:45:10;101426.69;;;33.58;26.38
68871;BME280;55906;52.278;6.808;2022-08-21T10:47:43;101423.00;;;33.59;25.98
68871;BME280;55906;52.278;6.808;2022-08-21T10:50:19;101428.25;;;32.87;27.03
68871;BME280;55906;52.278;6.808;2022-08-21T10:53:01;101438.97;;;32.74;26.86
68871;BME280;55906;52.278;6.808;2022-08-21T10:55:35;101427.84;;;32.45;27.52
68871;BME280;55906;52.278;6.808;2022-08-21T10:58:08;101422.31;;;32.47;27.72
68871;BME280;55906;52.278;6.808;2022-08-21T11:00:50;101422.22;;;33.12;27.36
68871;BME280;55906;52.278;6.808;2022-08-21T11:03:23;101418.59;;;33.27;27.21
68871;BME280;55906;52.278;6.808;2022-08-21T11:05:53;101422.53;;;33.37;26.08
68871;BME280;55906;52.278;6.808;2022-08-21T11:08:23;101420.88;;;33.79;26.14
68871;BME280;55906;52.278;6.808;2022-08-21T11:10:59;101420.41;;;33.42;25.99
68871;BME280;55906;52.278;6.808;2022-08-21T11:13:33;101429.66;;;32.78;26.40
68871;BME280;55906;52.278;6.808;2022-08-21T11:16:07;101418.75;;;32.62;27.16
68871;BME280;55906;52.278;6.808;2022-08-21T11:18:38;101422.06;;;32.67;26.65
68871;BME280;55906;52.278;6.808;2022-08-21T11:21:15;101416.44;;;33.02;26.54
68871;BME280;55906;52.278;6.808;2022-08-21T11:23:53;101415.56;;;32.70;27.40
68871;BME280;55906;52.278;6.808;2022-08-21T11:26:34;101418.75;;;32.62;27.89
68871;BME280;55906;52.278;6.808;2022-08-21T11:29:08;101417.22;;;32.08;28.93
68871;BME280;55906;52.278;6.808;2022-08-21T11:31:47;101434.81;;;32.18;27.40
68871;BME280;55906;52.278;6.808;2022-08-21T11:34:32;101418.03;;;32.59;27.69
68871;BME280;55906;52.278;6.808;2022-08-21T11:37:08;101410.94;;;33.18;26.98
68871;BME280;55906;52.278;6.808;2022-08-21T11:39:44;101422.31;;;33.56;26.87
68871;BME280;55906;52.278;6.808;2022-08-21T11:42:21;101417.88;;;33.23;26.36
68871;BME280;55906;52.278;6.808;2022-08-21T11:44:56;101417.66;;;32.49;27.50
68871;BME280;55906;52.278;6.808;2022-08-21T11:47:38;101417.41;;;32.21;27.71
68871;BME280;55906;52.278;6.808;2022-08-21T11:50:15;101421.44;;;31.80;28.06
68871;BME280;55906;52.278;6.808;2022-08-21T11:52:45;101421.44;;;32.13;27.87
68871;BME280;55906;52.278;6.808;2022-08-21T11:55:18;101421.53;;;31.79;28.55
68871;BME280;55906;52.278;6.808;2022-08-21T11:57:52;101418.81;;;31.79;27.57
68871;BME280;55906;52.278;6.808;2022-08-21T12:00:23;101410.84;;;31.92;27.68
68871;BME280;55906;52.278;6.808;2022-08-21T12:02:55;101412.72;;;32.07;28.13
68871;BME280;55906;52.278;6.808;2022-08-21T12:05:26;101416.34;;;32.07;27.69
68871;BME280;55906;52.278;6.808;2022-08-21T12:08:02;101412.44;;;31.96;28.05
68871;BME280;55906;52.278;6.808;2022-08-21T12:10:33;101402.19;;;32.50;27.40
68871;BME280;55906;52.278;6.808;2022-08-21T12:13:11;101406.22;;;32.42;27.31
68871;BME280;55906;52.278;6.808;2022-08-21T12:15:40;101395.09;;;32.79;27.25
68871;BME280;55906;52.278;6.808;2022-08-21T12:18:21;101387.44;;;32.85;26.89
68871;BME280;55906;52.278;6.808;2022-08-21T12:20:59;101397.25;;;33.03;26.94
68871;BME280;55906;52.278;6.808;2022-08-21T12:23:29;101397.47;;;32.69;27.27
68871;BME280;55906;52.278;6.808;2022-08-21T12:26:03;101404.19;;;32.46;27.87
68871;BME280;55906;52.278;6.808;2022-08-21T12:28:31;101402.81;;;32.55;27.46
68871;BME280;55906;52.278;6.808;2022-08-21T12:30:59;101404.97;;;32.32;27.28
68871;BME280;55906;52.278;6.808;2022-08-21T12:33:30;101413.41;;;32.28;27.77
68871;BME280;55906;52.278;6.808;2022-08-21T12:36:04;101407.69;;;31.32;29.40
68871;BME280;55906;52.278;6.808;2022-08-21T12:38:39;101403.03;;;31.34;29.39
68871;BME280;55906;52.278;6.808;2022-08-21T12:41:16;101401.00;;;31.89;28.57
68871;BME280;55906;52.278;6.808;2022-08-21T12:43:50;101397.81;;;32.14;28.14
68871;BME280;55906;52.278;6.808;2022-08-21T12:46:20;101411.41;;;31.98;28.30
68871;BME280;55906;52.278;6.808;2022-08-21T12:48:51;101409.56;;;32.47;27.70
68871;BME280;55906;52.278;6.808;2022-08-21T12:51:22;101401.19;;;33.14;27.12
68871;BME280;55906;52.278;6.808;2022-08-21T12:53:51;101394.22;;;33.84;26.49
68871;BME280;55906;52.278;6.808;2022-08-21T12:56:21;101394.03;;;34.15;25.43
68871;BME280;55906;52.278;6.808;2022-08-21T12:58:53;101401.63;;;34.39;24.69
68871;BME280;55906;52.278;6.808;2022-08-21T13:01:23;101388.66;;;34.83;24.53
68871;BME280;55906;52.278;6.808;2022-08-21T13:03:53;101391.50;;;35.48;24.46
68871;BME280;55906;52.278;6.808;2022-08-21T13:06:22;101382.13;;;35.25;24.50